Airfield :
LOGIN :

Register | Disclaimer

   EN    FR    IT 

 










Legend :    VFR   Marginal VFR   IFR   Intensive IFR   Very Intensive IFR
Visi :
Ceiling :
>= 8 km
>= 3000ft
5 to 8 km
1000 to 3000 ft
1500m to 5 km
500 to 1000 ft
800 to 1500m
200 to 500 ft
< 800m
< 200 ft
Symbols :   Thunderstorms  Fog  Heavy snow  Heavy precipitations  Wind > 20 kt
SIGMETs :     Misc.  Thunderstorms  Icing  Turbulence  Mountain Waves  Volcanic Ashes







- Airport Elevation : 18 ft
- IATA code : AJA
- Download approach charts


LFKJ - Ajaccio

EXPIRED METARs :
  • 220030Z AUTO 04004KT CAVOK 02/M01 Q1002 NOSIG
  • 220000Z AUTO 05005KT 360V080 CAVOK 02/00 Q1002 NOSIG

TAF TAF LFKJ
Valid from the 21 at 21:00 until the 22 at 21:00 UTC


212000Z 2121/2221 04005KT 9999 SCT050
PROB30
TEMPO 2121/2124 SHRA SCT030TCU BKN040
BECMG 2210/2212 23006KT
TEMPO 2213/2217 SHRA SCT030CB BKN050
ATIS : +33 4 95 23 59 85
No reported NOTAMs for that airfield.
3 SIGMETs reported for the Marseille FIR (LFMM) :
 
Embedded thunderstorms
LFMM SIGMET 9 VALID 220000/220400 LFPW
LFMM MARSEILLE FIR/UIR EMBD TS FCST WI N3930 E00430 - N4200 E00430 - N4200 E00415 - N4215 E00815 - N4130 E00945 - N4115 E00800 - N4000 E00800 - N3930 E00430 TOP FL230 STNR NC=
Severe turbulence
LFMM SIGMET 11 VALID 220200/220600 LFPW
LFMM MARSEILLE FIR/UIR SEV TURB FCST WI N4215 E00245 - N4215 E00230 - N4630 E00300 - N4630 E00515 - N4215 E00245 FL170/250 STNR NC=
Severe turbulence
LFMM SIGMET 10 VALID 220000/220400 LFPW
LFMM MARSEILLE FIR/UIR SEV TURB FCST WI N4200 E00400 - N4215 E00230 - N4300 E00230 - N4245 E00400 - N4200 E00400 SFC/FL050 STNR NC=



MET'MAP, your aeronautical weather chart ! - Copyright ORBIFLY December 2007 - Disclaimer

ORBIFLY MET'MAP TEAM :

Programming & Development : Alexandra Zaïnal
Concept & Development : Baudouin d'Aumeries
Co-Development & Prog : Marc-Olivier Méhu
Technical & hardware support : Manuel Goepfert

Contact : metmap@orbifly.com




SOURCES & CREDITS :

   NOAA